createdAt,value
2019-02-16T00:00:25.961Z,7.47
2019-02-16T00:02:57.091Z,7.17
2019-02-16T00:05:25.491Z,7.08
2019-02-16T00:07:54.140Z,7.45
2019-02-16T00:10:22.555Z,6.78
2019-02-16T00:12:51.078Z,9.20
2019-02-16T00:15:19.490Z,8.60
2019-02-16T00:17:48.085Z,8.43
2019-02-16T00:20:16.835Z,6.78
2019-02-16T00:22:45.241Z,7.55
2019-02-16T00:25:13.958Z,7.20
2019-02-16T00:27:42.351Z,8.33
2019-02-16T00:30:10.805Z,8.15
2019-02-16T00:32:39.213Z,8.13
2019-02-16T00:35:07.644Z,7.60
2019-02-16T00:37:36.041Z,9.05
2019-02-16T00:40:07.319Z,7.85
2019-02-16T00:42:35.714Z,7.78
2019-02-16T00:45:05.558Z,7.33
2019-02-16T00:47:34.198Z,6.62
2019-02-16T00:50:02.839Z,7.58
2019-02-16T00:52:31.555Z,7.78
2019-02-16T00:54:59.962Z,6.72
2019-02-16T00:57:28.592Z,6.17
2019-02-16T00:59:57.237Z,6.25
2019-02-16T01:02:25.634Z,7.22
2019-02-16T01:04:54.033Z,6.60
2019-02-16T01:07:22.442Z,5.70
2019-02-16T01:09:51.082Z,6.25
2019-02-16T01:12:19.646Z,6.40
2019-02-16T01:14:48.089Z,6.25
2019-02-16T01:17:16.530Z,6.72
2019-02-16T01:19:44.938Z,6.72
2019-02-16T01:22:13.575Z,6.62
2019-02-16T01:24:42.942Z,6.47
2019-02-16T01:27:11.338Z,7.20
2019-02-16T01:29:39.806Z,6.70
2019-02-16T01:32:08.299Z,6.12
2019-02-16T01:34:36.743Z,6.58
2019-02-16T01:37:05.387Z,6.00
2019-02-16T01:39:34.038Z,5.35
2019-02-16T01:42:02.735Z,5.85
2019-02-16T01:44:31.310Z,6.45
2019-02-16T01:46:59.713Z,7.55
2019-02-16T01:49:28.103Z,6.05
2019-02-16T01:51:56.557Z,5.67
2019-02-16T01:54:24.943Z,5.80
2019-02-16T01:56:53.821Z,4.65
2019-02-16T01:59:22.459Z,6.10
2019-02-16T02:01:51.107Z,6.15
2019-02-16T02:04:19.507Z,5.80
2019-02-16T02:06:48.073Z,6.85
2019-02-16T02:09:16.910Z,5.92
2019-02-16T02:11:45.449Z,6.33
2019-02-16T02:14:13.870Z,5.70
2019-02-16T02:16:42.282Z,5.90
2019-02-16T02:19:10.780Z,5.70
2019-02-16T02:21:41.275Z,5.20
2019-02-16T02:24:09.327Z,6.62
2019-02-16T02:26:37.767Z,6.05
2019-02-16T02:29:06.193Z,6.37
2019-02-16T02:31:35.093Z,5.40
2019-02-16T02:34:04.961Z,7.20
2019-02-16T02:36:33.633Z,5.40
2019-02-16T02:39:02.089Z,6.53
2019-02-16T02:41:30.562Z,5.58
2019-02-16T02:43:58.955Z,5.47
2019-02-16T02:46:27.357Z,5.87
2019-02-16T02:48:58.724Z,6.35
2019-02-16T02:51:27.130Z,5.60
2019-02-16T02:53:55.525Z,4.95
2019-02-16T02:56:23.922Z,6.17
2019-02-16T02:58:52.323Z,5.95
2019-02-16T03:01:20.957Z,5.50
2019-02-16T03:03:49.339Z,5.20
2019-02-16T03:06:17.990Z,6.55
2019-02-16T03:08:46.468Z,5.47
2019-02-16T03:11:14.888Z,5.12
2019-02-16T03:13:43.282Z,5.92
2019-02-16T03:16:11.730Z,5.22
2019-02-16T03:18:40.123Z,5.85
2019-02-16T03:21:08.532Z,5.87
2019-02-16T03:23:37.166Z,5.47
2019-02-16T03:26:08.645Z,6.03
2019-02-16T03:28:49.004Z,6.28
2019-02-16T03:31:38.512Z,5.35
2019-02-16T03:34:25.396Z,5.40
2019-02-16T03:37:19.713Z,5.33
2019-02-16T03:39:48.338Z,5.00
2019-02-16T03:42:17.128Z,5.42
2019-02-16T03:44:45.979Z,4.45
2019-02-16T03:47:14.377Z,5.90
2019-02-16T03:49:42.780Z,5.92
2019-02-16T03:52:14.216Z,5.83
2019-02-16T03:54:41.785Z,5.90
2019-02-16T03:57:10.414Z,6.28
2019-02-16T03:59:38.837Z,5.83
2019-02-16T04:02:07.305Z,7.08
2019-02-16T04:04:35.710Z,6.45
2019-02-16T04:07:04.114Z,6.97
2019-02-16T04:09:32.522Z,6.72
2019-02-16T04:12:01.562Z,6.72
2019-02-16T04:14:30.217Z,6.62
2019-02-16T04:16:58.931Z,6.78
2019-02-16T04:19:27.333Z,7.00
2019-02-16T04:21:58.762Z,7.33
2019-02-16T04:24:27.164Z,7.40
2019-02-16T04:26:55.630Z,6.53
2019-02-16T04:29:24.020Z,6.67
2019-02-16T04:31:52.482Z,6.83
2019-02-16T04:34:20.961Z,7.47
2019-02-16T04:36:49.340Z,7.28
2019-02-16T04:39:17.810Z,7.90
2019-02-16T04:41:48.155Z,6.62
2019-02-16T04:44:19.261Z,6.53
2019-02-16T04:46:47.906Z,6.00
2019-02-16T04:49:16.301Z,6.33
2019-02-16T04:51:44.736Z,6.87
2019-02-16T04:54:13.212Z,6.05
2019-02-16T04:56:41.590Z,5.72
2019-02-16T04:59:09.982Z,7.00
2019-02-16T05:01:38.803Z,5.50
2019-02-16T05:04:07.237Z,6.33
2019-02-16T05:06:35.623Z,5.78
2019-02-16T05:09:06.286Z,6.50
2019-02-16T05:11:34.689Z,5.78
2019-02-16T05:14:03.405Z,6.35
2019-02-16T05:16:31.803Z,5.92
2019-02-16T05:19:00.542Z,6.45
2019-02-16T05:21:28.908Z,6.28
2019-02-16T05:23:57.307Z,6.83
2019-02-16T05:26:25.705Z,7.03
2019-02-16T05:28:54.094Z,6.80
2019-02-16T05:31:22.506Z,6.72
2019-02-16T05:33:50.922Z,8.45
2019-02-16T05:36:19.745Z,6.12
2019-02-16T05:38:48.191Z,8.18
2019-02-16T05:41:16.614Z,6.37
2019-02-16T05:43:45.132Z,6.37
2019-02-16T05:46:13.580Z,5.85
2019-02-16T05:48:42.234Z,5.95
2019-02-16T05:51:10.633Z,6.17
2019-02-16T05:53:39.477Z,7.08
2019-02-16T05:56:08.113Z,6.60
2019-02-16T05:58:36.485Z,6.42
2019-02-16T06:01:04.954Z,7.10
2019-02-16T06:03:33.656Z,6.28
2019-02-16T06:06:02.314Z,5.87
2019-02-16T06:08:30.879Z,6.20
2019-02-16T06:10:59.525Z,6.45
2019-02-16T06:13:27.914Z,6.72
2019-02-16T06:15:56.318Z,7.08
2019-02-16T06:18:24.786Z,7.55
2019-02-16T06:20:53.594Z,7.35
2019-02-16T06:23:22.059Z,7.47
2019-02-16T06:25:50.486Z,7.70
2019-02-16T06:28:18.889Z,8.55
2019-02-16T06:30:47.483Z,8.15
2019-02-16T06:33:16.034Z,7.75
2019-02-16T06:35:48.856Z,9.15
2019-02-16T06:38:17.301Z,7.67
2019-02-16T06:40:45.986Z,7.80
2019-02-16T06:43:14.628Z,8.83
2019-02-16T06:45:43.103Z,7.42
2019-02-16T06:48:11.510Z,6.50
2019-02-16T06:50:39.935Z,8.45
2019-02-16T06:53:13.167Z,8.83
2019-02-16T06:55:43.010Z,7.08
2019-02-16T06:58:11.400Z,7.50
2019-02-16T07:00:39.867Z,7.83
2019-02-16T07:03:08.274Z,8.75
2019-02-16T07:05:41.691Z,7.58
2019-02-16T07:08:10.041Z,8.33
2019-02-16T07:10:39.138Z,7.60
2019-02-16T07:13:07.547Z,13.03
2019-02-16T07:15:36.262Z,8.83
2019-02-16T07:18:12.543Z,17.40
2019-02-16T07:20:40.951Z,8.33
2019-02-16T07:23:09.566Z,8.10
2019-02-16T07:25:37.992Z,8.40
2019-02-16T07:28:06.394Z,9.03
2019-02-16T07:30:34.802Z,8.98
2019-02-16T07:33:03.443Z,10.35
2019-02-16T07:35:31.918Z,10.43
2019-02-16T07:38:00.343Z,9.80
2019-02-16T07:40:28.809Z,8.93
2019-02-16T07:42:57.301Z,10.05
2019-02-16T07:45:35.203Z,10.63
2019-02-16T07:48:05.273Z,12.60
2019-02-16T07:50:41.095Z,10.68
2019-02-16T07:53:11.406Z,10.93
2019-02-16T07:55:41.763Z,11.75
2019-02-16T07:58:14.686Z,9.80
2019-02-16T08:00:50.862Z,10.80
2019-02-16T08:03:20.981Z,10.75
2019-02-16T08:06:07.606Z,10.20
2019-02-16T08:08:40.605Z,9.95
2019-02-16T08:11:10.887Z,9.15
2019-02-16T08:13:49.905Z,9.10
2019-02-16T08:16:23.000Z,9.60
2019-02-16T08:18:53.093Z,10.73
2019-02-16T08:21:39.666Z,11.90
2019-02-16T08:24:15.201Z,10.70
2019-02-16T08:26:45.245Z,10.77
2019-02-16T08:29:15.530Z,10.23
2019-02-16T08:31:57.505Z,11.07
2019-02-16T08:34:30.527Z,10.60
2019-02-16T08:37:15.607Z,12.60
2019-02-16T08:39:54.586Z,11.70
2019-02-16T08:42:40.906Z,12.13
2019-02-16T08:45:10.954Z,12.83
2019-02-16T08:47:46.985Z,12.13
2019-02-16T08:50:20.166Z,15.00
2019-02-16T08:53:05.524Z,16.47
2019-02-16T08:55:35.594Z,14.37
2019-02-16T08:58:20.991Z,15.57
2019-02-16T09:00:51.029Z,14.60
2019-02-16T09:03:21.349Z,11.63
2019-02-16T09:06:06.696Z,9.80
2019-02-16T09:08:36.738Z,9.90
2019-02-16T09:11:23.743Z,9.33
2019-02-16T09:13:56.987Z,9.43
2019-02-16T09:16:27.043Z,9.47
2019-02-16T09:19:06.380Z,9.23
2019-02-16T09:21:39.400Z,10.97
2019-02-16T09:24:18.690Z,10.10
2019-02-16T09:26:48.911Z,9.70
2019-02-16T09:29:22.103Z,9.70
2019-02-16T09:31:52.241Z,9.90
2019-02-16T09:34:31.090Z,8.40
2019-02-16T09:37:17.378Z,8.57
2019-02-16T09:40:02.321Z,8.70
2019-02-16T09:42:35.203Z,8.97
2019-02-16T09:45:05.728Z,8.97
2019-02-16T09:47:45.381Z,8.73
2019-02-16T09:50:28.183Z,8.90
2019-02-16T09:53:04.813Z,8.40
2019-02-16T09:55:36.957Z,8.20
2019-02-16T09:58:18.926Z,9.40
2019-02-16T10:01:01.584Z,9.83
2019-02-16T10:03:32.360Z,8.30
2019-02-16T10:06:11.806Z,8.57
2019-02-16T10:08:44.851Z,8.93
2019-02-16T10:11:21.099Z,8.00
2019-02-16T10:14:00.889Z,8.07
2019-02-16T10:16:34.279Z,8.87
2019-02-16T10:19:10.643Z,8.33
2019-02-16T10:21:43.853Z,8.83
2019-02-16T10:24:18.022Z,9.30
2019-02-16T10:26:48.368Z,9.07
2019-02-16T10:29:31.925Z,8.57
2019-02-16T10:32:11.162Z,8.80
2019-02-16T10:34:41.423Z,7.90
2019-02-16T10:37:17.337Z,9.80
2019-02-16T10:39:48.002Z,9.37
2019-02-16T10:42:18.362Z,9.17
2019-02-16T10:44:54.832Z,9.97
2019-02-16T10:47:25.237Z,8.57
2019-02-16T10:50:01.475Z,9.47
2019-02-16T10:52:40.650Z,9.53
2019-02-16T10:55:22.985Z,9.07
2019-02-16T10:57:59.074Z,9.23
2019-02-16T11:00:32.158Z,9.03
2019-02-16T11:03:02.350Z,8.23
2019-02-16T11:05:32.653Z,8.77
2019-02-16T11:08:17.634Z,9.00
2019-02-16T11:10:47.824Z,9.40
2019-02-16T11:13:20.707Z,8.63
2019-02-16T11:16:07.421Z,9.50
2019-02-16T11:18:40.487Z,9.70
2019-02-16T11:21:20.030Z,9.10
2019-02-16T11:23:53.063Z,9.63
2019-02-16T11:26:26.291Z,11.60
2019-02-16T11:28:59.470Z,7.73
2019-02-16T11:31:32.711Z,9.30
2019-02-16T11:34:19.479Z,9.17
2019-02-16T11:36:49.664Z,9.13
2019-02-16T11:39:19.850Z,10.50
2019-02-16T11:41:50.003Z,9.57
2019-02-16T11:44:23.092Z,8.43
2019-02-16T11:46:56.433Z,9.13
2019-02-16T11:49:42.148Z,9.47
2019-02-16T11:52:12.416Z,8.17
2019-02-16T11:54:46.840Z,9.90
2019-02-16T11:57:17.066Z,9.00
2019-02-16T12:00:03.386Z,9.27
2019-02-16T12:02:40.101Z,9.40
2019-02-16T12:05:13.501Z,7.87
2019-02-16T12:07:55.873Z,10.57
2019-02-16T12:10:26.218Z,9.57
2019-02-16T12:13:11.792Z,10.50
2019-02-16T12:15:41.861Z,10.83
2019-02-16T12:18:14.604Z,8.57
2019-02-16T12:20:59.628Z,9.40
2019-02-16T12:23:35.490Z,10.93
2019-02-16T12:26:22.004Z,8.77
2019-02-16T12:28:57.770Z,9.30
2019-02-16T12:31:30.656Z,10.20
2019-02-16T12:34:06.514Z,9.00
2019-02-16T12:36:36.590Z,10.13
2019-02-16T12:39:17.211Z,9.73
2019-02-16T12:42:04.918Z,9.83
2019-02-16T12:44:35.078Z,10.63
2019-02-16T12:47:07.973Z,9.77
2019-02-16T12:49:39.645Z,10.37
2019-02-16T12:52:09.746Z,9.43
2019-02-16T12:54:42.603Z,9.90
2019-02-16T12:57:21.759Z,8.70
2019-02-16T12:59:51.956Z,9.40
2019-02-16T13:02:22.052Z,9.67
2019-02-16T13:05:03.691Z,9.63
2019-02-16T13:07:35.294Z,8.40
2019-02-16T13:10:15.531Z,8.67
2019-02-16T13:12:54.893Z,9.40
2019-02-16T13:15:42.493Z,10.87
2019-02-16T13:18:15.376Z,9.97
2019-02-16T13:20:45.588Z,9.00
2019-02-16T13:23:31.033Z,9.67
2019-02-16T13:26:03.883Z,10.23
2019-02-16T13:28:38.106Z,10.20
2019-02-16T13:31:24.487Z,10.10
2019-02-16T13:33:54.547Z,10.50
2019-02-16T13:36:26.615Z,9.63
2019-02-16T13:39:13.206Z,9.70
2019-02-16T13:41:44.524Z,10.30
2019-02-16T13:44:29.915Z,11.10
2019-02-16T13:47:05.996Z,11.60
2019-02-16T13:49:39.004Z,9.80
2019-02-16T13:52:21.345Z,9.70
2019-02-16T13:54:51.416Z,11.30
2019-02-16T13:57:24.467Z,10.63
2019-02-16T14:00:00.782Z,11.43
2019-02-16T14:02:33.986Z,11.77
2019-02-16T14:05:13.103Z,10.73
2019-02-16T14:07:59.480Z,11.30
2019-02-16T14:10:41.740Z,11.47
2019-02-16T14:13:24.010Z,11.87
2019-02-16T14:15:54.201Z,10.97
2019-02-16T14:18:25.481Z,11.00
2019-02-16T14:20:54.066Z,12.53
2019-02-16T14:23:22.481Z,10.87
2019-02-16T14:25:50.890Z,11.60
2019-02-16T14:28:19.295Z,10.53
2019-02-16T14:30:49.261Z,11.30
2019-02-16T14:33:17.670Z,10.80
2019-02-16T14:35:46.241Z,11.30
2019-02-16T14:38:22.038Z,10.07
2019-02-16T14:40:50.478Z,11.17
2019-02-16T14:43:18.904Z,10.87
2019-02-16T14:45:47.621Z,9.43
2019-02-16T14:48:16.029Z,9.10
2019-02-16T14:50:44.442Z,10.80
2019-02-16T14:53:13.110Z,10.03
2019-02-16T14:55:51.578Z,9.87
2019-02-16T14:58:13.705Z,11.00
2019-02-16T15:00:42.110Z,9.40
2019-02-16T15:03:10.600Z,10.77
2019-02-16T15:05:39.025Z,10.30
2019-02-16T15:08:07.443Z,8.67
2019-02-16T15:10:35.857Z,8.60
2019-02-16T15:13:04.346Z,9.70
2019-02-16T15:15:32.782Z,9.93
2019-02-16T15:18:01.197Z,9.10
2019-02-16T15:20:29.602Z,9.20
2019-02-16T15:22:58.266Z,9.23
2019-02-16T15:25:26.925Z,10.17
2019-02-16T15:27:55.410Z,10.03
2019-02-16T15:30:24.084Z,7.80
2019-02-16T15:32:52.734Z,7.23
2019-02-16T15:35:21.144Z,7.70
2019-02-16T15:37:49.782Z,8.37
2019-02-16T15:40:18.520Z,7.60
2019-02-16T15:42:47.273Z,10.00
2019-02-16T15:45:15.751Z,10.13
2019-02-16T15:47:44.169Z,10.30
2019-02-16T15:50:14.522Z,9.33
2019-02-16T15:52:43.094Z,6.70
2019-02-16T15:55:12.563Z,6.83
2019-02-16T15:57:41.208Z,6.73
2019-02-16T16:00:16.131Z,6.47
2019-02-16T16:02:44.631Z,7.20
2019-02-16T16:05:13.014Z,6.07
2019-02-16T16:07:43.316Z,5.90
2019-02-16T16:10:13.670Z,6.77
2019-02-16T16:12:47.086Z,5.43
2019-02-16T16:15:20.206Z,6.43
2019-02-16T16:18:02.273Z,6.00
2019-02-16T16:20:41.578Z,5.03
2019-02-16T16:23:12.122Z,4.70
2019-02-16T16:25:42.502Z,4.50
2019-02-16T16:28:30.887Z,5.87
2019-02-16T16:31:11.604Z,6.00
2019-02-16T16:33:42.960Z,7.03
2019-02-16T16:36:29.608Z,6.65
2019-02-16T16:39:08.802Z,6.33
2019-02-16T16:41:45.311Z,5.75
2019-02-16T16:44:21.126Z,5.47
2019-02-16T16:46:56.904Z,4.97
2019-02-16T16:49:30.001Z,6.55
2019-02-16T16:52:01.923Z,7.58
2019-02-16T16:54:32.266Z,7.30
2019-02-16T16:57:17.281Z,7.70
2019-02-16T16:59:59.599Z,12.28
2019-02-16T17:02:44.445Z,7.65
2019-02-16T17:05:32.427Z,8.75
2019-02-16T17:08:14.425Z,8.35
2019-02-16T17:10:44.562Z,8.95
2019-02-16T17:13:17.722Z,8.13
2019-02-16T17:16:04.121Z,7.78
2019-02-16T17:18:44.973Z,7.92
2019-02-16T17:21:15.186Z,6.55
2019-02-16T17:23:45.398Z,6.47
2019-02-16T17:26:18.561Z,5.58
2019-02-16T17:28:54.489Z,6.30
2019-02-16T17:31:30.662Z,5.70
2019-02-16T17:34:00.802Z,6.60
2019-02-16T17:36:42.986Z,6.03
2019-02-16T17:39:13.271Z,5.35
2019-02-16T17:41:52.054Z,5.47
2019-02-16T17:44:40.651Z,6.90
2019-02-16T17:47:16.397Z,7.00
2019-02-16T17:49:49.464Z,6.60
2019-02-16T17:52:37.808Z,6.85
2019-02-16T17:55:23.137Z,7.30
2019-02-16T17:57:53.470Z,7.42
2019-02-16T18:00:32.563Z,7.62
2019-02-16T18:03:02.922Z,7.42
2019-02-16T18:05:50.885Z,7.12
2019-02-16T18:08:33.450Z,8.10
2019-02-16T18:11:06.548Z,8.93
2019-02-16T18:13:39.142Z,9.50
2019-02-16T18:16:12.282Z,8.23
2019-02-16T18:18:42.736Z,8.90
2019-02-16T18:21:15.510Z,7.92
2019-02-16T18:23:57.119Z,8.78
2019-02-16T18:26:38.950Z,8.58
2019-02-16T18:29:09.102Z,8.00
2019-02-16T18:31:55.642Z,8.58
2019-02-16T18:34:31.388Z,9.55
2019-02-16T18:37:01.461Z,8.55
2019-02-16T18:39:34.959Z,8.83
2019-02-16T18:42:22.608Z,9.10
2019-02-16T18:45:02.726Z,8.80
2019-02-16T18:47:48.121Z,8.95
2019-02-16T18:50:24.089Z,8.45
2019-02-16T18:52:55.588Z,7.95
2019-02-16T18:55:32.043Z,8.13
2019-02-16T18:58:02.140Z,8.05
2019-02-16T19:00:32.487Z,8.90
2019-02-16T19:03:08.538Z,8.58
2019-02-16T19:05:38.910Z,9.50
2019-02-16T19:08:26.702Z,8.40
2019-02-16T19:10:58.312Z,8.33
2019-02-16T19:13:41.875Z,8.78
2019-02-16T19:16:16.341Z,8.68
2019-02-16T19:19:03.237Z,8.45
2019-02-16T19:21:39.334Z,8.30
2019-02-16T19:24:18.306Z,8.85
2019-02-16T19:27:00.389Z,8.33
2019-02-16T19:29:45.510Z,8.83
2019-02-16T19:32:21.525Z,8.90
2019-02-16T19:34:54.306Z,9.20
2019-02-16T19:37:36.168Z,9.28
2019-02-16T19:40:23.849Z,9.10
2019-02-16T19:42:59.795Z,10.03
2019-02-16T19:45:42.039Z,8.80
2019-02-16T19:48:21.339Z,10.48
2019-02-16T19:51:10.022Z,8.45
2019-02-16T19:53:40.466Z,9.03
2019-02-16T19:56:19.430Z,9.83
2019-02-16T19:58:52.146Z,9.55
2019-02-16T20:01:25.632Z,9.48
2019-02-16T20:03:56.241Z,9.68
2019-02-16T20:06:29.262Z,9.63
2019-02-16T20:09:02.770Z,8.55
2019-02-16T20:11:32.820Z,8.80
2019-02-16T20:16:55.318Z,10.70
2019-02-16T20:19:28.095Z,11.25
2019-02-16T20:22:01.349Z,11.00
2019-02-16T20:24:49.909Z,11.25
2019-02-16T20:27:22.405Z,10.82
2019-02-16T20:29:58.732Z,10.63
2019-02-16T20:32:31.641Z,11.70
2019-02-16T20:35:18.237Z,11.53
2019-02-16T20:37:51.378Z,11.85
2019-02-16T20:40:24.272Z,11.30
2019-02-16T20:42:54.884Z,11.93
2019-02-16T20:45:27.937Z,13.60
2019-02-16T20:48:14.501Z,11.90
2019-02-16T20:51:01.146Z,11.60
2019-02-16T20:53:36.805Z,11.83
2019-02-16T20:56:09.679Z,10.78
2019-02-16T20:58:45.788Z,10.55
2019-02-16T21:01:32.719Z,11.40
2019-02-16T21:04:19.019Z,10.32
2019-02-16T21:06:49.079Z,9.98
2019-02-16T21:09:22.393Z,9.93
2019-02-16T21:12:01.967Z,8.90
2019-02-16T21:14:38.332Z,9.33
2019-02-16T21:20:00.388Z,10.35
2019-02-16T21:22:36.622Z,9.50
2019-02-16T21:25:16.625Z,9.93
2019-02-16T21:27:57.741Z,9.65
2019-02-16T21:30:40.041Z,8.95
2019-02-16T21:33:12.819Z,8.95
2019-02-16T21:35:52.183Z,9.40
2019-02-16T21:38:22.460Z,11.00
2019-02-16T21:40:52.594Z,13.70
2019-02-16T21:43:38.915Z,10.30
2019-02-16T21:46:24.262Z,13.28
2019-02-16T21:49:09.285Z,12.18
2019-02-16T21:51:39.322Z,11.95
2019-02-16T21:54:09.838Z,12.35
2019-02-16T21:56:57.966Z,12.40
2019-02-16T21:59:30.963Z,11.68
2019-02-16T22:02:03.711Z,12.15
2019-02-16T22:04:50.344Z,10.95
2019-02-16T22:07:20.502Z,11.05
2019-02-16T22:09:53.266Z,11.43
2019-02-16T22:12:32.660Z,12.00
2019-02-16T22:15:02.361Z,11.12
2019-02-16T22:17:31.226Z,10.35
2019-02-16T22:19:59.721Z,13.60
2019-02-16T22:22:28.126Z,12.50
2019-02-16T22:24:56.558Z,10.88
2019-02-16T22:27:24.962Z,11.28
2019-02-16T22:29:53.407Z,12.75
2019-02-16T22:32:21.815Z,11.65
2019-02-16T22:34:50.217Z,12.50
2019-02-16T22:37:19.039Z,12.95
2019-02-16T22:39:47.474Z,13.20
2019-02-16T22:42:15.906Z,11.18
2019-02-16T22:44:44.721Z,12.18
2019-02-16T22:47:13.510Z,11.85
2019-02-16T22:49:41.954Z,12.43
2019-02-16T22:52:10.755Z,12.75
2019-02-16T22:54:39.178Z,12.70
2019-02-16T22:57:07.582Z,11.97
2019-02-16T22:59:35.991Z,12.23
2019-02-16T23:02:05.179Z,12.05
2019-02-16T23:04:33.826Z,12.20
2019-02-16T23:07:02.248Z,15.05
2019-02-16T23:09:30.659Z,13.00
2019-02-16T23:11:59.130Z,12.23
2019-02-16T23:14:28.206Z,12.20
2019-02-16T23:16:56.643Z,12.82
2019-02-16T23:19:25.366Z,13.60
2019-02-16T23:21:54.073Z,13.20
2019-02-16T23:24:22.492Z,12.03
2019-02-16T23:26:50.904Z,14.00
2019-02-16T23:29:19.703Z,11.90
2019-02-16T23:31:48.384Z,12.88
2019-02-16T23:34:17.184Z,12.75
2019-02-16T23:36:46.007Z,14.05
2019-02-16T23:39:14.751Z,12.65
2019-02-16T23:41:43.159Z,13.28
2019-02-16T23:44:12.403Z,13.98
2019-02-16T23:46:41.111Z,13.00
2019-02-16T23:49:09.814Z,12.55
2019-02-16T23:51:38.234Z,12.63
2019-02-16T23:54:06.874Z,13.18
2019-02-16T23:56:35.705Z,13.68
2019-02-16T23:59:04.443Z,13.22
